This is the latest recevied weather packets stored in our database for station/object AD8IZ-13. If no packets are shown the sender has not sent any weather packets the latest 10 day(s).
| Time | Temp. | Humidity | Pressure | Rain* | Wind** | Luminosity | Snow |
|---|---|---|---|---|---|---|---|
| 1777853120 | 11.67° C | 67% | 1013.7 hPa | 0 mm | - | 4 W/m² | - |
| 1777852523 | 12.22° C | 64% | 1013.9 hPa | 0 mm | - | 18 W/m² | - |
| 1777851918 | 12.78° C | 60% | 1013.8 hPa | 0 mm | - | 29 W/m² | - |
| 1777851318 | 12.78° C | 58% | 1013.8 hPa | 0 mm | - | 43 W/m² | - |
| 1777850719 | 13.33° C | 57% | 1013.7 hPa | 0 mm | - | 34 W/m² | - |
| 1777850119 | 13.89° C | 55% | 1013.6 hPa | 0 mm | - | 45 W/m² | - |
| 1777849519 | 14.44° C | 50% | 1013.3 hPa | 0 mm | - | 53 W/m² | - |
| 1777848919 | 15° C | 47% | 1013.1 hPa | 0 mm | - | 62 W/m² | - |
| 1777848319 | 15° C | 46% | 1013.1 hPa | 0 mm | - | 100 W/m² | - |
| 1777847719 | 15° C | 47% | 1013.2 hPa | 0 mm | - | 121 W/m² | - |
| 1777847121 | 15° C | 47% | 1013.2 hPa | 0 mm | - | 141 W/m² | - |
| 1777846521 | 15° C | 46% | 1013.3 hPa | 0 mm | - | 125 W/m² | - |
| 1777845919 | 15.56° C | 47% | 1013.3 hPa | 0 mm | - | 145 W/m² | - |
| 1777845317 | 15.56° C | 46% | 1013.3 hPa | 0 mm | - | 194 W/m² | - |
| 1777844717 | 15.56° C | 46% | 1013.4 hPa | 0 mm | - | 182 W/m² | - |
| 1777844120 | 15.56° C | 47% | 1013.4 hPa | 0 mm | - | 220 W/m² | - |
| 1777843521 | 15.56° C | 47% | 1013.5 hPa | 0 mm | - | 249 W/m² | - |
| 1777842918 | 16.11° C | 45% | 1013.5 hPa | 0 mm | - | 241 W/m² | - |
| 1777842318 | 16.11° C | 45% | 1013.7 hPa | 0 mm | - | 284 W/m² | - |
| 1777841718 | 16.67° C | 46% | 1013.8 hPa | 0 mm | - | 361 W/m² | - |
| 1777841123 | 17.22° C | 45% | 1013.8 hPa | 0 mm | - | 468 W/m² | - |
| 1777840518 | 17.22° C | 45% | 1013.8 hPa | 0 mm | - | 607 W/m² | - |
| 1777839922 | 17.22° C | 45% | 1013.8 hPa | 0 mm | - | 423 W/m² | - |
| 1777839318 | 16.67° C | 45% | 1014 hPa | 0 mm | - | 660 W/m² | - |
| 1777838719 | 16.67° C | 45% | 1014.2 hPa | 0 mm | - | 737 W/m² | - |
* Rain latest hour (hover to see other rain measurements)
** Current wind speed in m/s (hover to see current wind gust speed)